createdAt,value
2018-06-18T00:01:47.629Z,24.87
2018-06-18T00:04:18.602Z,20.57
2018-06-18T00:06:49.540Z,17.77
2018-06-18T00:09:21.525Z,22.30
2018-06-18T00:11:52.771Z,20.23
2018-06-18T00:14:23.784Z,16.77
2018-06-18T00:16:54.862Z,16.00
2018-06-18T00:19:26.061Z,21.07
2018-06-18T00:21:57.351Z,18.10
2018-06-18T00:24:28.400Z,17.73
2018-06-18T00:27:00.542Z,18.13
2018-06-18T00:29:33.497Z,15.43
2018-06-18T00:32:06.224Z,19.83
2018-06-18T00:34:37.054Z,14.13
2018-06-18T00:37:08.607Z,16.23
2018-06-18T00:39:39.901Z,15.27
2018-06-18T00:42:10.998Z,19.40
2018-06-18T00:44:42.072Z,17.93
2018-06-18T00:47:13.108Z,13.17
2018-06-18T00:49:44.112Z,16.27
2018-06-18T00:52:15.697Z,11.83
2018-06-18T00:54:47.619Z,14.70
2018-06-18T00:57:20.413Z,11.87
2018-06-18T00:59:51.880Z,12.30
2018-06-18T01:02:23.056Z,12.73
2018-06-18T01:04:54.102Z,19.20
2018-06-18T01:07:25.356Z,15.13
2018-06-18T01:09:56.208Z,13.20
2018-06-18T01:12:27.072Z,14.60
2018-06-18T01:14:58.311Z,20.10
2018-06-18T01:17:30.197Z,14.73
2018-06-18T01:20:01.156Z,18.60
2018-06-18T01:22:32.590Z,18.50
2018-06-18T01:25:06.069Z,21.40
2018-06-18T01:27:40.356Z,22.80
2018-06-18T01:30:11.232Z,22.77
2018-06-18T01:32:42.319Z,26.27
2018-06-18T01:35:13.411Z,26.07
2018-06-18T01:37:44.374Z,32.13
2018-06-18T01:40:15.360Z,31.00
2018-06-18T01:42:47.245Z,39.03
2018-06-18T01:45:18.191Z,27.47
2018-06-18T01:47:50.687Z,28.63
2018-06-18T01:50:21.619Z,29.93
2018-06-18T01:52:52.953Z,29.40
2018-06-18T01:55:23.782Z,28.37
2018-06-18T01:57:56.160Z,30.77
2018-06-18T02:00:27.131Z,32.23
2018-06-18T02:03:00.786Z,28.87
2018-06-18T02:05:32.034Z,25.83
2018-06-18T02:08:03.341Z,26.13
2018-06-18T02:10:34.830Z,26.33
2018-06-18T02:13:06.991Z,24.60
2018-06-18T02:15:37.939Z,28.70
2018-06-18T02:18:10.308Z,24.80
2018-06-18T02:20:42.048Z,26.17
2018-06-18T02:23:13.168Z,24.40
2018-06-18T02:25:44.324Z,27.50
2018-06-18T02:28:20.349Z,31.07
2018-06-18T02:30:56.379Z,28.53
2018-06-18T02:33:34.218Z,32.07
2018-06-18T02:36:09.983Z,26.07
2018-06-18T02:38:45.905Z,25.40
2018-06-18T02:41:16.923Z,28.63
2018-06-18T02:43:47.929Z,22.40
2018-06-18T02:46:18.964Z,26.17
2018-06-18T02:48:50.157Z,23.17
2018-06-18T02:51:21.179Z,24.80
2018-06-18T02:53:53.039Z,34.63
2018-06-18T02:56:34.027Z,26.67
2018-06-18T02:59:05.269Z,21.83
2018-06-18T03:01:36.176Z,21.63
2018-06-18T03:04:07.233Z,21.83
2018-06-18T03:06:38.435Z,19.20
2018-06-18T03:09:11.531Z,19.63
2018-06-18T03:11:42.518Z,20.00
2018-06-18T03:14:13.634Z,23.50
2018-06-18T03:16:45.604Z,13.90
2018-06-18T03:19:21.691Z,17.67
2018-06-18T03:21:57.992Z,13.27
2018-06-18T03:24:34.197Z,14.90
2018-06-18T03:27:10.103Z,16.03
2018-06-18T03:29:41.410Z,13.07
2018-06-18T03:32:15.353Z,13.50
2018-06-18T03:34:46.375Z,11.80
2018-06-18T03:37:19.210Z,12.63
2018-06-18T03:39:50.571Z,12.37
2018-06-18T03:42:21.893Z,13.67
2018-06-18T03:45:29.223Z,12.90
2018-06-18T03:48:02.186Z,11.50
2018-06-18T03:50:33.565Z,13.30
2018-06-18T03:53:04.295Z,10.70
2018-06-18T03:55:41.278Z,10.87
2018-06-18T03:58:12.494Z,10.03
2018-06-18T04:01:06.933Z,15.30
2018-06-18T04:03:44.115Z,11.23
2018-06-18T04:06:19.952Z,12.60
2018-06-18T04:09:59.728Z,10.47
2018-06-18T04:12:31.734Z,10.87
2018-06-18T04:15:03.035Z,11.93
2018-06-18T04:17:34.209Z,9.10
2018-06-18T04:20:05.968Z,10.60
2018-06-18T04:22:36.810Z,10.30
2018-06-18T04:25:08.158Z,11.63
2018-06-18T04:27:41.026Z,12.23
2018-06-18T04:30:12.363Z,8.57
2018-06-18T04:32:43.421Z,8.87
2018-06-18T04:38:49.028Z,8.33
2018-06-18T04:41:20.108Z,7.40
2018-06-18T04:43:56.096Z,7.87
2018-06-18T04:46:31.913Z,7.83
2018-06-18T04:49:08.843Z,8.30
2018-06-18T04:51:40.156Z,9.90
2018-06-18T04:54:11.251Z,8.03
2018-06-18T04:56:42.388Z,9.53
2018-06-18T04:59:14.024Z,9.20
2018-06-18T05:01:45.183Z,9.90
2018-06-18T05:04:17.367Z,9.87
2018-06-18T05:06:49.066Z,8.37
2018-06-18T05:09:33.717Z,8.70
2018-06-18T05:12:04.840Z,10.70
2018-06-18T05:14:36.951Z,8.30
2018-06-18T05:17:09.126Z,7.97
2018-06-18T05:19:40.993Z,7.73
2018-06-18T05:22:12.461Z,7.97
2018-06-18T05:24:44.386Z,9.77
2018-06-18T05:27:16.034Z,8.07
2018-06-18T05:29:48.997Z,9.13
2018-06-18T05:32:19.948Z,8.60
2018-06-18T05:34:51.234Z,9.00
2018-06-18T05:38:35.217Z,9.33
2018-06-18T05:41:06.295Z,8.43
2018-06-18T05:43:38.324Z,8.83
2018-06-18T05:46:09.791Z,10.20
2018-06-18T05:48:41.082Z,14.67
2018-06-18T05:51:12.041Z,8.70
2018-06-18T05:53:43.084Z,8.33
2018-06-18T05:56:14.237Z,8.80
2018-06-18T05:58:46.160Z,9.73
2018-06-18T06:01:19.170Z,11.00
2018-06-18T06:03:50.355Z,8.30
2018-06-18T06:06:21.773Z,7.70
2018-06-18T06:08:52.420Z,10.07
2018-06-18T06:11:23.194Z,8.73
2018-06-18T06:13:53.762Z,9.03
2018-06-18T06:16:24.744Z,9.20
2018-06-18T06:18:55.391Z,8.03
2018-06-18T06:21:25.973Z,10.10
2018-06-18T06:23:56.558Z,13.37
2018-06-18T06:26:27.267Z,8.73
2018-06-18T06:28:57.985Z,8.10
2018-06-18T06:31:30.234Z,8.30
2018-06-18T06:34:00.839Z,8.80
2018-06-18T06:36:31.575Z,8.97
2018-06-18T06:39:02.550Z,11.40
2018-06-18T06:41:33.549Z,9.27
2018-06-18T06:44:04.128Z,8.40
2018-06-18T06:46:34.903Z,8.10
2018-06-18T06:49:05.574Z,10.13
2018-06-18T06:51:36.269Z,11.37
2018-06-18T06:54:06.973Z,8.93
2018-06-18T06:56:37.738Z,8.60
2018-06-18T06:59:08.366Z,10.10
2018-06-18T07:01:39.947Z,10.67
2018-06-18T07:04:10.846Z,8.77
2018-06-18T07:06:42.146Z,9.27
2018-06-18T07:09:13.843Z,8.97
2018-06-18T07:11:45.180Z,8.80
2018-06-18T07:14:16.421Z,13.57
2018-06-18T07:16:48.440Z,10.03
2018-06-18T07:19:19.593Z,8.77
2018-06-18T07:21:50.605Z,11.37
2018-06-18T07:24:21.596Z,10.10
2018-06-18T07:26:52.765Z,10.63
2018-06-18T07:29:23.963Z,8.63
2018-06-18T07:31:55.716Z,9.97
2018-06-18T07:34:26.964Z,12.30
2018-06-18T07:36:58.216Z,15.30
2018-06-18T07:39:30.039Z,13.90
2018-06-18T07:42:01.202Z,10.00
2018-06-18T07:44:32.620Z,10.37
2018-06-18T07:47:03.798Z,11.40
2018-06-18T07:49:34.856Z,9.60
2018-06-18T07:52:05.991Z,10.30
2018-06-18T07:54:37.095Z,8.93
2018-06-18T07:57:08.376Z,9.73
2018-06-18T07:59:39.540Z,13.00
2018-06-18T08:02:12.385Z,11.17
2018-06-18T08:04:43.514Z,8.70
2018-06-18T08:07:14.475Z,10.03
2018-06-18T08:09:45.684Z,9.53
2018-06-18T08:12:19.666Z,10.90
2018-06-18T08:14:50.648Z,11.10
2018-06-18T08:17:21.921Z,10.03
2018-06-18T08:19:53.057Z,10.27
2018-06-18T08:22:24.420Z,12.40
2018-06-18T08:24:55.564Z,9.90
2018-06-18T08:27:26.821Z,11.50
2018-06-18T08:29:58.997Z,10.50
2018-06-18T08:32:30.232Z,17.83
2018-06-18T08:35:02.149Z,11.40
2018-06-18T08:37:34.204Z,12.07
2018-06-18T08:42:48.201Z,13.20
2018-06-18T08:45:19.559Z,9.23
2018-06-18T08:47:50.426Z,10.20
2018-06-18T08:50:26.967Z,11.20
2018-06-18T08:53:02.791Z,10.43
2018-06-18T08:55:39.283Z,10.30
2018-06-18T08:58:15.151Z,13.70
2018-06-18T09:00:51.120Z,10.53
2018-06-18T09:03:24.759Z,14.63
2018-06-18T09:06:00.904Z,12.43
2018-06-18T09:08:36.129Z,9.47
2018-06-18T09:11:07.276Z,10.00
2018-06-18T09:13:38.587Z,10.87
2018-06-18T09:16:10.968Z,12.50
2018-06-18T09:18:43.767Z,9.57
2018-06-18T09:21:15.173Z,9.13
2018-06-18T09:23:47.072Z,15.00
2018-06-18T09:26:18.489Z,11.00
2018-06-18T09:28:49.681Z,10.23
2018-06-18T09:31:20.799Z,9.90
2018-06-18T09:33:52.026Z,11.13
2018-06-18T09:36:24.885Z,8.90
2018-06-18T09:38:56.199Z,9.73
2018-06-18T09:41:27.525Z,9.97
2018-06-18T09:43:58.622Z,12.70
2018-06-18T09:46:29.585Z,9.37
2018-06-18T09:49:05.581Z,8.20
2018-06-18T09:51:42.000Z,8.10
2018-06-18T09:54:17.972Z,10.07
2018-06-18T09:56:55.182Z,11.80
2018-06-18T09:59:43.707Z,7.80
2018-06-18T10:02:16.241Z,8.43
2018-06-18T10:04:47.679Z,7.60
2018-06-18T10:07:19.161Z,9.23
2018-06-18T10:09:50.314Z,7.67
2018-06-18T10:12:21.622Z,10.53
2018-06-18T10:14:52.702Z,8.67
2018-06-18T10:17:23.931Z,21.33
2018-06-18T10:19:55.039Z,10.70
2018-06-18T10:22:26.417Z,10.10
2018-06-18T10:24:57.429Z,10.07
2018-06-18T10:27:28.434Z,7.90
2018-06-18T10:29:59.644Z,12.30
2018-06-18T10:32:35.729Z,9.30
2018-06-18T10:35:11.618Z,8.57
2018-06-18T10:37:47.809Z,8.80
2018-06-18T10:40:23.508Z,12.90
2018-06-18T10:42:59.595Z,9.13
2018-06-18T10:45:30.770Z,8.93
2018-06-18T10:48:01.937Z,16.70
2018-06-18T10:50:32.873Z,13.53
2018-06-18T10:53:04.006Z,7.80
2018-06-18T10:55:35.045Z,14.93
2018-06-18T10:58:06.451Z,6.47
2018-06-18T11:00:37.646Z,12.13
2018-06-18T11:03:08.880Z,8.90
2018-06-18T11:05:45.175Z,9.50
2018-06-18T11:08:16.276Z,15.37
2018-06-18T11:10:47.287Z,6.60
2018-06-18T11:13:18.393Z,7.77
2018-06-18T11:15:50.202Z,11.40
2018-06-18T11:18:26.026Z,7.40
2018-06-18T11:21:02.246Z,7.53
2018-06-18T11:23:38.030Z,7.43
2018-06-18T11:26:13.915Z,8.23
2018-06-18T11:28:45.994Z,7.67
2018-06-18T11:31:17.383Z,8.10
2018-06-18T11:33:48.436Z,14.60
2018-06-18T11:36:19.324Z,13.70
2018-06-18T11:38:50.416Z,5.40
2018-06-18T11:41:21.468Z,9.77
2018-06-18T11:43:52.599Z,11.53
2018-06-18T11:46:23.697Z,6.53
2018-06-18T11:48:55.064Z,12.60
2018-06-18T11:51:26.056Z,7.97
2018-06-18T11:53:57.362Z,14.73
2018-06-18T11:56:28.615Z,6.87
2018-06-18T11:59:04.306Z,16.53
2018-06-18T12:02:43.816Z,8.77
2018-06-18T12:05:19.878Z,28.83
2018-06-18T12:07:55.847Z,7.37
2018-06-18T12:10:27.081Z,9.30
2018-06-18T12:12:58.432Z,11.50
2018-06-18T12:15:29.764Z,8.20
2018-06-18T12:18:01.047Z,15.23
2018-06-18T12:20:32.003Z,12.10
2018-06-18T12:23:03.556Z,8.80
2018-06-18T12:25:35.025Z,6.93
2018-06-18T12:28:06.191Z,11.80
2018-06-18T12:30:37.299Z,9.37
2018-06-18T12:33:08.307Z,5.77
2018-06-18T12:35:39.544Z,11.93
2018-06-18T12:38:10.476Z,5.60
2018-06-18T12:40:41.679Z,11.70
2018-06-18T12:43:13.083Z,15.67
2018-06-18T12:45:49.256Z,9.10
2018-06-18T12:48:25.264Z,12.90
2018-06-18T12:51:01.107Z,6.17
2018-06-18T12:53:37.077Z,11.50
2018-06-18T12:56:12.932Z,6.67
2018-06-18T12:58:43.740Z,8.50
2018-06-18T13:01:16.387Z,9.50
2018-06-18T13:03:47.495Z,7.40
2018-06-18T13:06:18.353Z,10.90
2018-06-18T13:08:49.830Z,7.00
2018-06-18T13:11:20.999Z,7.17
2018-06-18T13:13:52.273Z,6.23
2018-06-18T13:16:23.175Z,7.47
2018-06-18T13:18:54.653Z,9.70
2018-06-18T13:21:25.663Z,9.50
2018-06-18T13:23:57.075Z,10.73
2018-06-18T13:26:28.163Z,6.90
2018-06-18T13:28:59.242Z,7.73
2018-06-18T13:31:30.163Z,14.03
2018-06-18T13:34:01.301Z,8.73
2018-06-18T13:36:32.404Z,5.67
2018-06-18T13:39:08.383Z,13.77
2018-06-18T13:41:44.436Z,10.50
2018-06-18T13:44:20.540Z,6.20
2018-06-18T13:46:56.543Z,5.30
2018-06-18T13:49:32.721Z,7.33
2018-06-18T13:52:03.890Z,21.20
2018-06-18T13:54:35.451Z,6.70
2018-06-18T13:57:06.602Z,16.13
2018-06-18T13:59:38.068Z,11.33
2018-06-18T14:02:09.459Z,12.97
2018-06-18T14:04:40.568Z,9.40
2018-06-18T14:07:11.933Z,14.90
2018-06-18T14:09:43.140Z,8.10
2018-06-18T14:12:14.145Z,9.37
2018-06-18T14:14:45.223Z,10.77
2018-06-18T14:17:16.140Z,7.30
2018-06-18T14:19:52.340Z,11.70
2018-06-18T14:22:23.423Z,11.87
2018-06-18T14:24:54.890Z,9.07
2018-06-18T14:27:25.918Z,9.53
2018-06-18T14:30:01.801Z,6.83
2018-06-18T14:32:37.877Z,14.60
2018-06-18T14:35:13.718Z,9.37
2018-06-18T14:37:49.778Z,12.87
2018-06-18T14:40:21.845Z,13.30
2018-06-18T14:42:53.802Z,14.00
2018-06-18T14:45:24.957Z,10.23
2018-06-18T14:47:55.915Z,8.67
2018-06-18T14:50:27.162Z,4.90
2018-06-18T14:52:58.190Z,10.67
2018-06-18T14:55:29.459Z,10.37
2018-06-18T14:58:00.677Z,6.17
2018-06-18T15:00:33.246Z,5.80
2018-06-18T15:03:04.282Z,12.47
2018-06-18T15:05:42.463Z,12.17
2018-06-18T15:08:13.653Z,6.30
2018-06-18T15:10:49.768Z,8.50
2018-06-18T15:13:21.073Z,5.10
2018-06-18T15:15:57.119Z,8.53
2018-06-18T15:18:28.125Z,5.40
2018-06-18T15:21:01.640Z,7.33
2018-06-18T15:23:32.735Z,6.30
2018-06-18T15:26:04.018Z,11.33
2018-06-18T15:28:35.331Z,10.83
2018-06-18T15:31:06.349Z,7.90
2018-06-18T15:33:37.675Z,5.30
2018-06-18T15:36:09.764Z,7.17
2018-06-18T15:38:40.888Z,9.40
2018-06-18T15:41:12.169Z,9.87
2018-06-18T15:43:43.263Z,12.83
2018-06-18T15:46:15.246Z,4.70
2018-06-18T15:48:46.256Z,11.80
2018-06-18T15:51:17.284Z,10.23
2018-06-18T15:53:48.230Z,9.80
2018-06-18T15:56:19.168Z,4.57
2018-06-18T15:58:50.193Z,5.67
2018-06-18T16:01:22.200Z,8.70
2018-06-18T16:03:53.209Z,5.70
2018-06-18T16:06:24.494Z,11.20
2018-06-18T16:08:55.528Z,9.73
2018-06-18T16:11:26.701Z,5.20
2018-06-18T16:13:57.944Z,5.87
2018-06-18T16:16:29.223Z,8.50
2018-06-18T16:19:00.439Z,5.70
2018-06-18T16:21:31.646Z,10.70
2018-06-18T16:24:03.759Z,5.50
2018-06-18T16:26:34.894Z,5.90
2018-06-18T16:29:06.037Z,15.57
2018-06-18T16:31:36.948Z,11.43
2018-06-18T16:34:08.872Z,7.20
2018-06-18T16:36:39.963Z,6.97
2018-06-18T16:39:12.756Z,7.47
2018-06-18T16:41:43.933Z,11.80
2018-06-18T16:44:15.191Z,10.33
2018-06-18T16:46:46.378Z,15.60
2018-06-18T16:49:17.857Z,7.00
2018-06-18T16:51:49.072Z,11.70
2018-06-18T16:54:20.060Z,7.53
2018-06-18T16:56:51.160Z,11.07
2018-06-18T16:59:22.247Z,11.37
2018-06-18T17:01:53.387Z,11.30
2018-06-18T17:04:24.405Z,8.10
2018-06-18T17:06:55.484Z,7.43
2018-06-18T17:09:26.625Z,7.20
2018-06-18T17:11:57.690Z,12.20
2018-06-18T17:14:28.797Z,7.43
2018-06-18T17:16:59.835Z,10.60
2018-06-18T17:19:30.986Z,14.50
2018-06-18T17:22:02.894Z,6.57
2018-06-18T17:24:33.856Z,6.30
2018-06-18T17:27:05.201Z,14.97
2018-06-18T17:29:36.378Z,11.57
2018-06-18T17:32:07.729Z,20.63
2018-06-18T17:34:38.864Z,16.17
2018-06-18T17:37:09.938Z,13.00
2018-06-18T17:39:40.748Z,12.13
2018-06-18T17:42:11.749Z,13.40
2018-06-18T17:44:43.862Z,13.83
2018-06-18T17:47:15.049Z,8.73
2018-06-18T17:49:46.263Z,9.83
2018-06-18T17:52:17.809Z,9.03
2018-06-18T17:54:48.962Z,10.43
2018-06-18T17:57:20.148Z,8.13
2018-06-18T17:59:51.299Z,5.50
2018-06-18T18:02:22.775Z,6.73
2018-06-18T18:04:57.311Z,10.37
2018-06-18T18:07:29.444Z,5.33
2018-06-18T18:10:00.601Z,5.33
2018-06-18T18:12:31.933Z,8.20
2018-06-18T18:15:03.022Z,8.97
2018-06-18T18:17:34.310Z,15.33
2018-06-18T18:20:05.427Z,10.53
2018-06-18T18:22:36.611Z,7.07
2018-06-18T18:25:07.638Z,9.20
2018-06-18T18:27:38.811Z,5.13
2018-06-18T18:30:09.865Z,5.07
2018-06-18T18:32:41.151Z,10.63
2018-06-18T18:35:12.699Z,5.10
2018-06-18T18:37:43.846Z,5.57
2018-06-18T18:40:15.186Z,6.33
2018-06-18T18:42:46.467Z,6.07
2018-06-18T18:45:17.380Z,7.50
2018-06-18T18:47:48.513Z,10.13
2018-06-18T18:50:19.466Z,5.67
2018-06-18T18:52:50.914Z,8.60
2018-06-18T18:55:37.682Z,13.17
2018-06-18T18:58:20.484Z,6.23
2018-06-18T19:00:52.714Z,5.93
2018-06-18T19:03:27.050Z,5.53
2018-06-18T19:05:59.350Z,9.20
2018-06-18T19:08:32.810Z,5.93
2018-06-18T19:11:05.052Z,5.07
2018-06-18T19:13:37.543Z,8.13
2018-06-18T19:16:09.922Z,7.13
2018-06-18T19:18:43.214Z,13.40
2018-06-18T19:21:14.634Z,10.23
2018-06-18T19:23:46.003Z,10.17
2018-06-18T19:26:17.026Z,10.93
2018-06-18T19:28:49.031Z,7.57
2018-06-18T19:31:21.760Z,11.33
2018-06-18T19:34:11.135Z,13.23
2018-06-18T19:36:45.523Z,6.13
2018-06-18T19:39:16.833Z,11.97
2018-06-18T19:41:47.887Z,10.77
2018-06-18T19:44:19.079Z,7.27
2018-06-18T19:46:59.688Z,6.40
2018-06-18T19:49:30.984Z,13.40
2018-06-18T19:52:02.100Z,8.40
2018-06-18T19:54:35.243Z,5.77
2018-06-18T19:57:06.324Z,12.33
2018-06-18T19:59:37.538Z,6.67
2018-06-18T20:02:08.749Z,7.90
2018-06-18T20:04:39.797Z,6.73
2018-06-18T20:07:10.946Z,8.93
2018-06-18T20:09:42.134Z,11.50
2018-06-18T20:12:13.397Z,5.73
2018-06-18T20:14:44.251Z,5.83
2018-06-18T20:17:15.386Z,5.80
2018-06-18T20:19:47.713Z,5.33
2018-06-18T20:22:19.089Z,5.90
2018-06-18T20:24:51.255Z,5.97
2018-06-18T20:27:22.562Z,10.87
2018-06-18T20:29:53.749Z,6.03
2018-06-18T20:32:24.689Z,13.20
2018-06-18T20:34:55.929Z,6.23
2018-06-18T20:37:26.976Z,5.90
2018-06-18T20:39:58.225Z,10.93
2018-06-18T20:42:29.511Z,6.03
2018-06-18T20:45:00.802Z,8.03
2018-06-18T20:47:31.866Z,7.33
2018-06-18T20:50:03.293Z,12.97
2018-06-18T20:52:34.592Z,6.60
2018-06-18T20:55:05.704Z,14.60
2018-06-18T20:57:36.716Z,8.80
2018-06-18T21:00:07.945Z,6.03
2018-06-18T21:02:39.265Z,7.00
2018-06-18T21:05:10.581Z,6.80
2018-06-18T21:07:42.724Z,15.83
2018-06-18T21:10:13.779Z,6.23
2018-06-18T21:12:44.979Z,5.80
2018-06-18T21:15:16.920Z,10.53
2018-06-18T21:17:47.972Z,5.90
2018-06-18T21:20:20.172Z,10.87
2018-06-18T21:22:51.361Z,9.97
2018-06-18T21:25:22.372Z,7.37
2018-06-18T21:27:53.880Z,11.97
2018-06-18T21:30:25.273Z,5.60
2018-06-18T21:32:56.353Z,6.20
2018-06-18T21:35:27.374Z,9.40
2018-06-18T21:37:58.463Z,6.10
2018-06-18T21:40:29.503Z,9.17
2018-06-18T21:43:00.495Z,6.10
2018-06-18T21:45:31.602Z,7.27
2018-06-18T21:48:02.590Z,5.90
2018-06-18T21:50:33.542Z,6.23
2018-06-18T21:53:04.412Z,10.40
2018-06-18T21:55:35.719Z,13.53
2018-06-18T21:58:07.166Z,6.17
2018-06-18T22:00:38.355Z,5.50
2018-06-18T22:03:08.991Z,5.70
2018-06-18T22:05:40.880Z,8.80
2018-06-18T22:08:13.981Z,11.53
2018-06-18T22:10:45.221Z,5.13
2018-06-18T22:13:16.242Z,12.63
2018-06-18T22:15:47.276Z,5.50
2018-06-18T22:18:18.680Z,5.53
2018-06-18T22:20:49.746Z,5.90
2018-06-18T22:23:20.730Z,5.20
2018-06-18T22:25:52.064Z,8.10
2018-06-18T22:28:27.067Z,14.33
2018-06-18T22:30:58.251Z,6.20
2018-06-18T22:33:29.181Z,10.23
2018-06-18T22:36:00.335Z,9.30
2018-06-18T22:38:31.511Z,6.43
2018-06-18T22:41:02.638Z,8.10
2018-06-18T22:43:33.852Z,10.43
2018-06-18T22:46:04.998Z,10.40
2018-06-18T22:48:36.020Z,5.93
2018-06-18T22:51:07.486Z,17.53
2018-06-18T22:53:38.854Z,5.60
2018-06-18T22:56:10.243Z,8.93
2018-06-18T22:58:41.214Z,5.90
2018-06-18T23:01:12.149Z,8.57
2018-06-18T23:03:43.295Z,5.90
2018-06-18T23:06:14.425Z,6.50
2018-06-18T23:08:46.438Z,6.53
2018-06-18T23:11:17.877Z,7.13
2018-06-18T23:13:49.031Z,7.03
2018-06-18T23:16:20.207Z,8.43
2018-06-18T23:18:51.438Z,9.70
2018-06-18T23:21:22.453Z,5.77
2018-06-18T23:23:53.711Z,10.23
2018-06-18T23:26:24.778Z,8.83
2018-06-18T23:28:58.046Z,10.37
2018-06-18T23:31:28.960Z,9.40
2018-06-18T23:34:00.246Z,6.10
2018-06-18T23:36:31.161Z,5.37
2018-06-18T23:39:02.353Z,8.77
2018-06-18T23:41:34.528Z,6.70
2018-06-18T23:44:05.816Z,6.83
2018-06-18T23:46:37.164Z,16.17
2018-06-18T23:49:08.562Z,6.07
2018-06-18T23:51:39.861Z,6.73
2018-06-18T23:54:10.896Z,6.60
2018-06-18T23:56:41.990Z,6.23
2018-06-18T23:59:13.029Z,6.73
